sensor_id;sensor_type;location;lat;lon;timestamp;P1;durP1;ratioP1;P2;durP2;ratioP2
27436;SDS011;14886;51.586;6.722;2023-07-31T00:00:14;8.2;;;2.6;;
27436;SDS011;14886;51.586;6.722;2023-07-31T00:05:15;10.5;;;2.6;;
27436;SDS011;14886;51.586;6.722;2023-07-31T00:10:16;14.7;;;3.5;;
27436;SDS011;14886;51.586;6.722;2023-07-31T00:15:14;15.6;;;4.5;;
27436;SDS011;14886;51.586;6.722;2023-07-31T00:20:14;28.1;;;7.0;;
27436;SDS011;14886;51.586;6.722;2023-07-31T00:25:14;31.0;;;7.4;;
27436;SDS011;14886;51.586;6.722;2023-07-31T00:35:13;43.1;;;9.3;;
27436;SDS011;14886;51.586;6.722;2023-07-31T00:40:13;54.0;;;11.7;;
27436;SDS011;14886;51.586;6.722;2023-07-31T00:45:13;49.1;;;11.4;;
27436;SDS011;14886;51.586;6.722;2023-07-31T00:50:13;39.4;;;9.4;;
27436;SDS011;14886;51.586;6.722;2023-07-31T00:55:13;47.4;;;11.0;;
27436;SDS011;14886;51.586;6.722;2023-07-31T01:00:12;43.2;;;10.2;;
27436;SDS011;14886;51.586;6.722;2023-07-31T01:05:12;38.3;;;9.5;;
27436;SDS011;14886;51.586;6.722;2023-07-31T01:10:15;38.8;;;8.7;;
27436;SDS011;14886;51.586;6.722;2023-07-31T01:15:12;35.1;;;8.3;;
27436;SDS011;14886;51.586;6.722;2023-07-31T01:20:14;43.7;;;9.2;;
27436;SDS011;14886;51.586;6.722;2023-07-31T01:25:16;33.7;;;8.3;;
27436;SDS011;14886;51.586;6.722;2023-07-31T01:30:14;38.8;;;8.8;;
27436;SDS011;14886;51.586;6.722;2023-07-31T01:35:11;33.6;;;7.7;;
27436;SDS011;14886;51.586;6.722;2023-07-31T01:40:11;33.9;;;7.9;;
27436;SDS011;14886;51.586;6.722;2023-07-31T01:45:12;30.5;;;7.5;;
27436;SDS011;14886;51.586;6.722;2023-07-31T01:50:11;34.4;;;7.8;;
27436;SDS011;14886;51.586;6.722;2023-07-31T01:55:11;32.1;;;7.3;;
27436;SDS011;14886;51.586;6.722;2023-07-31T02:00:11;34.4;;;7.4;;
27436;SDS011;14886;51.586;6.722;2023-07-31T02:05:11;28.3;;;6.4;;
27436;SDS011;14886;51.586;6.722;2023-07-31T02:10:10;31.4;;;6.9;;
27436;SDS011;14886;51.586;6.722;2023-07-31T02:15:10;29.3;;;6.6;;
27436;SDS011;14886;51.586;6.722;2023-07-31T02:20:10;25.0;;;7.2;;
27436;SDS011;14886;51.586;6.722;2023-07-31T02:25:10;24.4;;;6.2;;
27436;SDS011;14886;51.586;6.722;2023-07-31T02:30:11;30.2;;;7.4;;
27436;SDS011;14886;51.586;6.722;2023-07-31T02:35:10;28.5;;;6.3;;
27436;SDS011;14886;51.586;6.722;2023-07-31T02:40:10;26.9;;;6.7;;
27436;SDS011;14886;51.586;6.722;2023-07-31T02:45:09;21.7;;;5.6;;
27436;SDS011;14886;51.586;6.722;2023-07-31T02:50:09;23.2;;;5.7;;
27436;SDS011;14886;51.586;6.722;2023-07-31T02:55:09;28.4;;;6.0;;
27436;SDS011;14886;51.586;6.722;2023-07-31T03:00:09;21.5;;;5.8;;
27436;SDS011;14886;51.586;6.722;2023-07-31T03:05:09;22.7;;;5.9;;
27436;SDS011;14886;51.586;6.722;2023-07-31T03:10:09;20.7;;;5.2;;
27436;SDS011;14886;51.586;6.722;2023-07-31T03:15:09;22.3;;;5.4;;
27436;SDS011;14886;51.586;6.722;2023-07-31T03:20:09;24.3;;;6.3;;
27436;SDS011;14886;51.586;6.722;2023-07-31T03:25:08;28.4;;;6.2;;
27436;SDS011;14886;51.586;6.722;2023-07-31T03:30:08;21.5;;;5.3;;
27436;SDS011;14886;51.586;6.722;2023-07-31T03:35:08;27.1;;;5.9;;
27436;SDS011;14886;51.586;6.722;2023-07-31T03:40:08;21.8;;;5.4;;
27436;SDS011;14886;51.586;6.722;2023-07-31T03:45:08;19.8;;;5.6;;
27436;SDS011;14886;51.586;6.722;2023-07-31T03:50:07;21.3;;;5.7;;
27436;SDS011;14886;51.586;6.722;2023-07-31T03:55:07;24.5;;;5.7;;
27436;SDS011;14886;51.586;6.722;2023-07-31T04:00:07;22.7;;;4.9;;
27436;SDS011;14886;51.586;6.722;2023-07-31T04:05:07;20.0;;;5.2;;
27436;SDS011;14886;51.586;6.722;2023-07-31T04:10:07;20.8;;;5.8;;
27436;SDS011;14886;51.586;6.722;2023-07-31T04:15:07;18.2;;;5.4;;
27436;SDS011;14886;51.586;6.722;2023-07-31T04:20:07;18.7;;;5.7;;
27436;SDS011;14886;51.586;6.722;2023-07-31T04:25:07;17.1;;;4.9;;
27436;SDS011;14886;51.586;6.722;2023-07-31T04:30:07;18.5;;;5.1;;
27436;SDS011;14886;51.586;6.722;2023-07-31T04:35:06;21.1;;;5.6;;
27436;SDS011;14886;51.586;6.722;2023-07-31T04:40:06;22.9;;;5.6;;
27436;SDS011;14886;51.586;6.722;2023-07-31T04:45:07;20.6;;;5.5;;
27436;SDS011;14886;51.586;6.722;2023-07-31T04:50:06;20.4;;;5.4;;
27436;SDS011;14886;51.586;6.722;2023-07-31T04:55:06;22.1;;;5.6;;
27436;SDS011;14886;51.586;6.722;2023-07-31T05:00:06;19.9;;;5.2;;
27436;SDS011;14886;51.586;6.722;2023-07-31T05:05:06;22.4;;;5.4;;
27436;SDS011;14886;51.586;6.722;2023-07-31T05:10:06;19.2;;;5.2;;
27436;SDS011;14886;51.586;6.722;2023-07-31T05:15:05;17.2;;;4.9;;
27436;SDS011;14886;51.586;6.722;2023-07-31T05:20:06;20.5;;;5.1;;
27436;SDS011;14886;51.586;6.722;2023-07-31T05:25:05;20.2;;;5.3;;
27436;SDS011;14886;51.586;6.722;2023-07-31T05:30:05;14.0;;;4.3;;
27436;SDS011;14886;51.586;6.722;2023-07-31T05:35:05;18.7;;;4.8;;
27436;SDS011;14886;51.586;6.722;2023-07-31T05:40:05;15.1;;;4.8;;
27436;SDS011;14886;51.586;6.722;2023-07-31T05:45:05;21.5;;;5.2;;
27436;SDS011;14886;51.586;6.722;2023-07-31T05:50:05;16.9;;;5.3;;
27436;SDS011;14886;51.586;6.722;2023-07-31T05:55:05;12.5;;;4.5;;
27436;SDS011;14886;51.586;6.722;2023-07-31T06:00:05;13.2;;;4.8;;
27436;SDS011;14886;51.586;6.722;2023-07-31T06:05:04;15.9;;;5.4;;
27436;SDS011;14886;51.586;6.722;2023-07-31T06:10:04;20.1;;;5.5;;
27436;SDS011;14886;51.586;6.722;2023-07-31T06:15:04;17.1;;;5.4;;
27436;SDS011;14886;51.586;6.722;2023-07-31T06:20:05;18.2;;;6.1;;
27436;SDS011;14886;51.586;6.722;2023-07-31T06:25:04;19.7;;;6.6;;
27436;SDS011;14886;51.586;6.722;2023-07-31T06:30:04;22.6;;;7.4;;
27436;SDS011;14886;51.586;6.722;2023-07-31T06:35:04;21.0;;;7.3;;
27436;SDS011;14886;51.586;6.722;2023-07-31T06:40:03;24.8;;;7.6;;
27436;SDS011;14886;51.586;6.722;2023-07-31T06:45:03;19.7;;;7.4;;
27436;SDS011;14886;51.586;6.722;2023-07-31T06:50:03;15.9;;;6.0;;
27436;SDS011;14886;51.586;6.722;2023-07-31T06:55:03;18.5;;;6.3;;
27436;SDS011;14886;51.586;6.722;2023-07-31T07:00:03;16.6;;;6.2;;
27436;SDS011;14886;51.586;6.722;2023-07-31T07:05:03;19.4;;;7.0;;
27436;SDS011;14886;51.586;6.722;2023-07-31T07:10:03;19.3;;;6.4;;
27436;SDS011;14886;51.586;6.722;2023-07-31T07:15:02;16.0;;;6.0;;
27436;SDS011;14886;51.586;6.722;2023-07-31T07:20:02;15.3;;;5.6;;
27436;SDS011;14886;51.586;6.722;2023-07-31T07:25:02;16.3;;;5.9;;
27436;SDS011;14886;51.586;6.722;2023-07-31T07:30:02;18.9;;;5.9;;
27436;SDS011;14886;51.586;6.722;2023-07-31T07:35:02;15.4;;;5.8;;
27436;SDS011;14886;51.586;6.722;2023-07-31T07:40:02;14.1;;;5.0;;
27436;SDS011;14886;51.586;6.722;2023-07-31T07:45:01;19.9;;;5.5;;
27436;SDS011;14886;51.586;6.722;2023-07-31T07:50:01;15.7;;;5.6;;
27436;SDS011;14886;51.586;6.722;2023-07-31T07:55:03;12.8;;;5.0;;
27436;SDS011;14886;51.586;6.722;2023-07-31T08:00:01;12.0;;;3.9;;
27436;SDS011;14886;51.586;6.722;2023-07-31T08:15:01;9.7;;;4.2;;
27436;SDS011;14886;51.586;6.722;2023-07-31T08:25:00;11.4;;;4.1;;
27436;SDS011;14886;51.586;6.722;2023-07-31T08:30:00;9.5;;;3.3;;
27436;SDS011;14886;51.586;6.722;2023-07-31T08:35:00;8.7;;;3.3;;
27436;SDS011;14886;51.586;6.722;2023-07-31T08:38:20;8.7;;;3.3;;
27436;SDS011;14886;51.586;6.722;2023-07-31T08:40:00;7.1;;;3.5;;
27436;SDS011;14886;51.586;6.722;2023-07-31T08:45:00;8.2;;;3.1;;
27436;SDS011;14886;51.586;6.722;2023-07-31T08:50:00;8.9;;;4.0;;
27436;SDS011;14886;51.586;6.722;2023-07-31T08:55:00;7.1;;;3.4;;
27436;SDS011;14886;51.586;6.722;2023-07-31T08:59:59;8.0;;;3.1;;
27436;SDS011;14886;51.586;6.722;2023-07-31T09:04:59;9.7;;;3.8;;
27436;SDS011;14886;51.586;6.722;2023-07-31T09:09:59;7.3;;;3.5;;
27436;SDS011;14886;51.586;6.722;2023-07-31T09:14:59;11.7;;;4.1;;
27436;SDS011;14886;51.586;6.722;2023-07-31T09:20:03;8.4;;;4.0;;
27436;SDS011;14886;51.586;6.722;2023-07-31T09:25:03;11.6;;;4.2;;
27436;SDS011;14886;51.586;6.722;2023-07-31T09:29:59;9.9;;;4.2;;
27436;SDS011;14886;51.586;6.722;2023-07-31T09:34:59;12.8;;;4.3;;
27436;SDS011;14886;51.586;6.722;2023-07-31T09:39:58;12.1;;;4.6;;
27436;SDS011;14886;51.586;6.722;2023-07-31T09:45:06;8.7;;;3.8;;
27436;SDS011;14886;51.586;6.722;2023-07-31T09:49:58;9.8;;;4.4;;
27436;SDS011;14886;51.586;6.722;2023-07-31T09:54:58;10.0;;;4.4;;
27436;SDS011;14886;51.586;6.722;2023-07-31T09:59:58;10.7;;;4.0;;
27436;SDS011;14886;51.586;6.722;2023-07-31T10:04:58;9.8;;;4.0;;
27436;SDS011;14886;51.586;6.722;2023-07-31T10:09:58;10.2;;;3.6;;
27436;SDS011;14886;51.586;6.722;2023-07-31T10:14:58;7.7;;;3.6;;
27436;SDS011;14886;51.586;6.722;2023-07-31T10:19:58;8.4;;;3.7;;
27436;SDS011;14886;51.586;6.722;2023-07-31T10:24:58;12.8;;;4.3;;
27436;SDS011;14886;51.586;6.722;2023-07-31T10:29:58;7.2;;;3.3;;
27436;SDS011;14886;51.586;6.722;2023-07-31T10:34:58;17.2;;;4.9;;
27436;SDS011;14886;51.586;6.722;2023-07-31T10:39:58;13.3;;;4.0;;
27436;SDS011;14886;51.586;6.722;2023-07-31T10:44:58;9.6;;;4.2;;
27436;SDS011;14886;51.586;6.722;2023-07-31T11:00:08;6.6;;;3.2;;
27436;SDS011;14886;51.586;6.722;2023-07-31T11:05:07;6.5;;;3.5;;
27436;SDS011;14886;51.586;6.722;2023-07-31T11:09:57;9.3;;;3.6;;
27436;SDS011;14886;51.586;6.722;2023-07-31T11:19:57;7.9;;;3.2;;
27436;SDS011;14886;51.586;6.722;2023-07-31T11:24:57;7.3;;;3.1;;
27436;SDS011;14886;51.586;6.722;2023-07-31T11:30:00;6.4;;;3.1;;
27436;SDS011;14886;51.586;6.722;2023-07-31T11:34:57;8.3;;;3.0;;
27436;SDS011;14886;51.586;6.722;2023-07-31T11:39:58;8.5;;;3.1;;
27436;SDS011;14886;51.586;6.722;2023-07-31T11:44:57;10.1;;;2.7;;
27436;SDS011;14886;51.586;6.722;2023-07-31T11:49:57;6.3;;;2.7;;
27436;SDS011;14886;51.586;6.722;2023-07-31T11:54:57;6.1;;;2.8;;
27436;SDS011;14886;51.586;6.722;2023-07-31T11:59:57;6.2;;;3.1;;
27436;SDS011;14886;51.586;6.722;2023-07-31T12:04:57;7.3;;;2.8;;
27436;SDS011;14886;51.586;6.722;2023-07-31T12:09:57;8.8;;;2.5;;
27436;SDS011;14886;51.586;6.722;2023-07-31T12:14:57;6.6;;;2.6;;
27436;SDS011;14886;51.586;6.722;2023-07-31T12:19:57;4.4;;;2.7;;
27436;SDS011;14886;51.586;6.722;2023-07-31T12:24:57;6.6;;;2.8;;
27436;SDS011;14886;51.586;6.722;2023-07-31T12:29:57;6.9;;;2.7;;
27436;SDS011;14886;51.586;6.722;2023-07-31T12:39:57;5.1;;;2.6;;
27436;SDS011;14886;51.586;6.722;2023-07-31T12:44:57;6.5;;;2.8;;
27436;SDS011;14886;51.586;6.722;2023-07-31T12:49:57;6.8;;;2.9;;
27436;SDS011;14886;51.586;6.722;2023-07-31T12:54:57;8.0;;;3.4;;
27436;SDS011;14886;51.586;6.722;2023-07-31T12:59:57;8.7;;;3.2;;
27436;SDS011;14886;51.586;6.722;2023-07-31T13:04:57;6.5;;;3.3;;
27436;SDS011;14886;51.586;6.722;2023-07-31T13:09:57;7.1;;;3.6;;
27436;SDS011;14886;51.586;6.722;2023-07-31T13:14:57;7.4;;;3.6;;
27436;SDS011;14886;51.586;6.722;2023-07-31T13:19:57;6.4;;;3.1;;
27436;SDS011;14886;51.586;6.722;2023-07-31T13:24:57;7.8;;;4.0;;
27436;SDS011;14886;51.586;6.722;2023-07-31T13:29:57;7.9;;;3.8;;
27436;SDS011;14886;51.586;6.722;2023-07-31T13:34:57;11.7;;;4.8;;
27436;SDS011;14886;51.586;6.722;2023-07-31T13:39:57;9.6;;;4.4;;
27436;SDS011;14886;51.586;6.722;2023-07-31T13:44:57;10.1;;;5.0;;
27436;SDS011;14886;51.586;6.722;2023-07-31T13:49:57;11.9;;;4.5;;
27436;SDS011;14886;51.586;6.722;2023-07-31T13:54:56;9.6;;;4.2;;
27436;SDS011;14886;51.586;6.722;2023-07-31T13:59:56;7.3;;;3.5;;
27436;SDS011;14886;51.586;6.722;2023-07-31T14:04:56;11.4;;;3.7;;
27436;SDS011;14886;51.586;6.722;2023-07-31T14:09:56;8.4;;;3.5;;
27436;SDS011;14886;51.586;6.722;2023-07-31T14:14:56;7.9;;;3.6;;
27436;SDS011;14886;51.586;6.722;2023-07-31T14:19:56;7.1;;;4.0;;
27436;SDS011;14886;51.586;6.722;2023-07-31T14:24:57;12.7;;;3.7;;
27436;SDS011;14886;51.586;6.722;2023-07-31T14:29:57;11.4;;;3.5;;
27436;SDS011;14886;51.586;6.722;2023-07-31T14:34:57;14.1;;;3.7;;
27436;SDS011;14886;51.586;6.722;2023-07-31T14:39:57;8.3;;;3.4;;
27436;SDS011;14886;51.586;6.722;2023-07-31T14:44:57;9.8;;;4.2;;
27436;SDS011;14886;51.586;6.722;2023-07-31T14:49:57;14.8;;;4.4;;
27436;SDS011;14886;51.586;6.722;2023-07-31T14:54:57;12.3;;;4.2;;
27436;SDS011;14886;51.586;6.722;2023-07-31T14:59:57;12.9;;;4.9;;
27436;SDS011;14886;51.586;6.722;2023-07-31T15:04:57;10.0;;;4.9;;
27436;SDS011;14886;51.586;6.722;2023-07-31T15:09:57;13.7;;;6.0;;
27436;SDS011;14886;51.586;6.722;2023-07-31T15:14:57;13.0;;;5.4;;
27436;SDS011;14886;51.586;6.722;2023-07-31T15:19:57;13.3;;;5.7;;
27436;SDS011;14886;51.586;6.722;2023-07-31T15:24:57;17.1;;;6.4;;
27436;SDS011;14886;51.586;6.722;2023-07-31T15:29:57;15.6;;;6.3;;
27436;SDS011;14886;51.586;6.722;2023-07-31T15:34:57;13.0;;;6.2;;
27436;SDS011;14886;51.586;6.722;2023-07-31T15:39:56;16.2;;;6.9;;
27436;SDS011;14886;51.586;6.722;2023-07-31T15:44:56;13.9;;;6.3;;
27436;SDS011;14886;51.586;6.722;2023-07-31T15:49:56;13.0;;;5.9;;
27436;SDS011;14886;51.586;6.722;2023-07-31T15:54:56;15.9;;;6.0;;
27436;SDS011;14886;51.586;6.722;2023-07-31T15:59:56;10.7;;;5.5;;
27436;SDS011;14886;51.586;6.722;2023-07-31T16:04:56;13.4;;;5.5;;
27436;SDS011;14886;51.586;6.722;2023-07-31T16:09:56;12.4;;;5.4;;
27436;SDS011;14886;51.586;6.722;2023-07-31T16:14:56;13.7;;;5.6;;
27436;SDS011;14886;51.586;6.722;2023-07-31T16:19:56;12.8;;;6.1;;
27436;SDS011;14886;51.586;6.722;2023-07-31T16:24:56;12.7;;;5.8;;
27436;SDS011;14886;51.586;6.722;2023-07-31T16:29:56;12.9;;;5.8;;
27436;SDS011;14886;51.586;6.722;2023-07-31T16:34:56;16.3;;;6.3;;
27436;SDS011;14886;51.586;6.722;2023-07-31T16:39:55;15.4;;;6.4;;
27436;SDS011;14886;51.586;6.722;2023-07-31T16:44:55;17.6;;;6.0;;
27436;SDS011;14886;51.586;6.722;2023-07-31T16:49:55;13.3;;;5.3;;
27436;SDS011;14886;51.586;6.722;2023-07-31T16:54:55;16.0;;;5.5;;
27436;SDS011;14886;51.586;6.722;2023-07-31T16:59:55;12.2;;;5.4;;
27436;SDS011;14886;51.586;6.722;2023-07-31T17:04:55;12.0;;;5.1;;
27436;SDS011;14886;51.586;6.722;2023-07-31T17:09:55;11.6;;;5.1;;
27436;SDS011;14886;51.586;6.722;2023-07-31T17:14:55;12.4;;;4.7;;
27436;SDS011;14886;51.586;6.722;2023-07-31T17:19:55;15.1;;;5.0;;
27436;SDS011;14886;51.586;6.722;2023-07-31T17:24:55;12.5;;;4.0;;
27436;SDS011;14886;51.586;6.722;2023-07-31T17:29:55;9.1;;;3.8;;
27436;SDS011;14886;51.586;6.722;2023-07-31T17:34:55;9.7;;;3.8;;
27436;SDS011;14886;51.586;6.722;2023-07-31T17:39:55;7.9;;;3.6;;
27436;SDS011;14886;51.586;6.722;2023-07-31T17:49:54;10.3;;;3.8;;
27436;SDS011;14886;51.586;6.722;2023-07-31T17:54:54;11.8;;;3.8;;
27436;SDS011;14886;51.586;6.722;2023-07-31T17:59:54;9.9;;;4.1;;
27436;SDS011;14886;51.586;6.722;2023-07-31T18:04:54;11.8;;;3.8;;
27436;SDS011;14886;51.586;6.722;2023-07-31T18:09:54;9.7;;;3.2;;
27436;SDS011;14886;51.586;6.722;2023-07-31T18:14:54;6.5;;;2.6;;
27436;SDS011;14886;51.586;6.722;2023-07-31T18:19:54;10.3;;;3.2;;
27436;SDS011;14886;51.586;6.722;2023-07-31T18:24:54;8.3;;;3.2;;
27436;SDS011;14886;51.586;6.722;2023-07-31T18:29:54;8.4;;;2.9;;
27436;SDS011;14886;51.586;6.722;2023-07-31T18:34:54;5.9;;;2.6;;
27436;SDS011;14886;51.586;6.722;2023-07-31T18:39:53;8.0;;;2.8;;
27436;SDS011;14886;51.586;6.722;2023-07-31T18:44:53;6.5;;;3.0;;
27436;SDS011;14886;51.586;6.722;2023-07-31T18:49:53;8.5;;;3.5;;
27436;SDS011;14886;51.586;6.722;2023-07-31T18:54:53;5.7;;;2.6;;
27436;SDS011;14886;51.586;6.722;2023-07-31T18:59:53;7.8;;;2.9;;
27436;SDS011;14886;51.586;6.722;2023-07-31T19:04:53;7.2;;;3.0;;
27436;SDS011;14886;51.586;6.722;2023-07-31T19:09:53;7.7;;;2.8;;
27436;SDS011;14886;51.586;6.722;2023-07-31T19:14:53;9.5;;;3.0;;
27436;SDS011;14886;51.586;6.722;2023-07-31T19:19:53;6.1;;;2.7;;
27436;SDS011;14886;51.586;6.722;2023-07-31T19:24:52;8.2;;;2.8;;
27436;SDS011;14886;51.586;6.722;2023-07-31T19:29:52;6.0;;;2.4;;
27436;SDS011;14886;51.586;6.722;2023-07-31T19:34:52;6.8;;;2.6;;
27436;SDS011;14886;51.586;6.722;2023-07-31T19:39:52;7.0;;;2.2;;
27436;SDS011;14886;51.586;6.722;2023-07-31T19:44:52;6.5;;;2.3;;
27436;SDS011;14886;51.586;6.722;2023-07-31T19:49:52;5.2;;;2.0;;
27436;SDS011;14886;51.586;6.722;2023-07-31T19:54:52;7.4;;;2.1;;
27436;SDS011;14886;51.586;6.722;2023-07-31T19:59:52;4.2;;;1.7;;
27436;SDS011;14886;51.586;6.722;2023-07-31T20:04:52;6.5;;;1.9;;
27436;SDS011;14886;51.586;6.722;2023-07-31T20:09:51;5.9;;;1.9;;
27436;SDS011;14886;51.586;6.722;2023-07-31T20:14:51;6.6;;;2.2;;
27436;SDS011;14886;51.586;6.722;2023-07-31T20:19:51;4.5;;;1.6;;
27436;SDS011;14886;51.586;6.722;2023-07-31T20:24:51;6.6;;;2.4;;
27436;SDS011;14886;51.586;6.722;2023-07-31T20:29:51;5.2;;;2.5;;
27436;SDS011;14886;51.586;6.722;2023-07-31T20:34:51;8.4;;;2.4;;
27436;SDS011;14886;51.586;6.722;2023-07-31T20:39:51;15.6;;;3.0;;
27436;SDS011;14886;51.586;6.722;2023-07-31T20:44:51;11.0;;;2.8;;
27436;SDS011;14886;51.586;6.722;2023-07-31T20:49:51;6.9;;;2.7;;
27436;SDS011;14886;51.586;6.722;2023-07-31T20:54:50;7.3;;;3.2;;
27436;SDS011;14886;51.586;6.722;2023-07-31T20:59:50;9.9;;;3.4;;
27436;SDS011;14886;51.586;6.722;2023-07-31T21:04:50;6.7;;;3.2;;
27436;SDS011;14886;51.586;6.722;2023-07-31T21:09:50;9.8;;;3.1;;
27436;SDS011;14886;51.586;6.722;2023-07-31T21:14:50;6.9;;;2.1;;
27436;SDS011;14886;51.586;6.722;2023-07-31T21:19:50;8.6;;;1.5;;
27436;SDS011;14886;51.586;6.722;2023-07-31T21:24:50;9.5;;;1.7;;
27436;SDS011;14886;51.586;6.722;2023-07-31T21:29:50;2.8;;;1.1;;
27436;SDS011;14886;51.586;6.722;2023-07-31T21:34:50;7.2;;;1.4;;
27436;SDS011;14886;51.586;6.722;2023-07-31T21:39:49;5.2;;;1.3;;
27436;SDS011;14886;51.586;6.722;2023-07-31T21:44:49;4.8;;;1.6;;
27436;SDS011;14886;51.586;6.722;2023-07-31T21:49:49;3.8;;;1.6;;
27436;SDS011;14886;51.586;6.722;2023-07-31T21:54:49;3.9;;;1.8;;
27436;SDS011;14886;51.586;6.722;2023-07-31T21:59:49;6.0;;;1.7;;
27436;SDS011;14886;51.586;6.722;2023-07-31T22:04:49;4.9;;;2.1;;
27436;SDS011;14886;51.586;6.722;2023-07-31T22:09:49;7.6;;;2.4;;
27436;SDS011;14886;51.586;6.722;2023-07-31T22:14:49;8.6;;;3.0;;
27436;SDS011;14886;51.586;6.722;2023-07-31T22:19:48;9.5;;;3.2;;
27436;SDS011;14886;51.586;6.722;2023-07-31T22:24:48;16.0;;;3.9;;
27436;SDS011;14886;51.586;6.722;2023-07-31T22:29:48;13.0;;;3.8;;
27436;SDS011;14886;51.586;6.722;2023-07-31T22:34:48;8.1;;;2.8;;
27436;SDS011;14886;51.586;6.722;2023-07-31T22:39:48;7.7;;;2.5;;
27436;SDS011;14886;51.586;6.722;2023-07-31T22:44:48;7.0;;;2.7;;
27436;SDS011;14886;51.586;6.722;2023-07-31T22:49:47;11.8;;;2.9;;
27436;SDS011;14886;51.586;6.722;2023-07-31T22:54:47;6.9;;;2.6;;
27436;SDS011;14886;51.586;6.722;2023-07-31T22:59:47;8.1;;;2.7;;
27436;SDS011;14886;51.586;6.722;2023-07-31T23:04:47;9.9;;;3.1;;
27436;SDS011;14886;51.586;6.722;2023-07-31T23:09:47;8.4;;;3.2;;
27436;SDS011;14886;51.586;6.722;2023-07-31T23:14:47;13.8;;;3.6;;
27436;SDS011;14886;51.586;6.722;2023-07-31T23:19:46;12.5;;;3.6;;
27436;SDS011;14886;51.586;6.722;2023-07-31T23:24:46;12.3;;;3.5;;
27436;SDS011;14886;51.586;6.722;2023-07-31T23:29:46;13.4;;;3.2;;
27436;SDS011;14886;51.586;6.722;2023-07-31T23:44:45;9.6;;;2.8;;
27436;SDS011;14886;51.586;6.722;2023-07-31T23:49:45;24.3;;;4.6;;
27436;SDS011;14886;51.586;6.722;2023-07-31T23:54:45;26.1;;;5.5;;
27436;SDS011;14886;51.586;6.722;2023-07-31T23:59:45;28.2;;;5.4;;
